Terminal Aerodrome Forecast
Issued by NWS

Home | Current Version | Previous Version | Text Only | Print | Product List | Glossary Off
Versions: 1 2 3 4 5 6 7 8 9 10 11 12 13 14 15 16 17 18 19 20 21

000
FTUS43 KABR 302322
TAFMBG
TAF
KMBG 302322Z 3100/3124 12004KT P6SM SKC
     FM311200 12013KT P6SM VCSH SCT050 BKN100
     FM311800 14016KT P6SM VCSH OVC040=

USA.gov is the U.S. government's official web portal to all federal, state and local government web resources and services.